Time;durP1;ratioP1;P1;durP2;ratioP2;P2;SDS_P1;SDS_P2;PMS_P1;PMS_P2;Temp;Humidity;BMP_temperature;BMP_pressure;BME280_temperature;BME280_humidity;BME280_pressure;Samples;Min_cycle;Max_cycle;Signal;HPM_P1;HPM_P2
2021/10/08 00:01:32;;;;;;;8.95;6.95;;;14.50;73.10;;;;;;4885264;29;20031;-84
2021/10/08 00:04:00;;;;;;;8.85;6.70;;;14.40;73.00;;;;;;4870172;29;20036;-84
2021/10/08 00:06:26;;;;;;;8.95;6.75;;;14.40;73.00;;;;;;4885494;29;20103;-84
2021/10/08 00:08:52;;;;;;;9.02;6.97;;;14.40;73.10;;;;;;4885231;29;20057;-85
2021/10/08 00:11:18;;;;;;;9.20;7.38;;;14.40;73.10;;;;;;4901324;29;20029;-84
2021/10/08 00:13:44;;;;;;;8.93;6.85;;;14.40;73.10;;;;;;4902135;29;20032;-85
2021/10/08 00:16:11;;;;;;;8.75;7.30;;;14.40;73.10;;;;;;4901405;29;20375;-84
2021/10/08 00:18:38;;;;;;;9.18;6.97;;;14.40;73.10;;;;;;4870453;29;20028;-84
2021/10/08 00:21:05;;;;;;;8.88;6.63;;;14.30;73.10;;;;;;4870082;29;20036;-84
2021/10/08 00:23:32;;;;;;;9.13;7.05;;;14.40;73.10;;;;;;4900746;29;20048;-84
2021/10/08 00:25:58;;;;;;;7.90;6.50;;;14.40;73.10;;;;;;4884972;29;20414;-84
2021/10/08 00:28:24;;;;;;;8.68;6.82;;;14.40;73.10;;;;;;4916442;29;20030;-85
2021/10/08 00:30:50;;;;;;;8.90;6.90;;;14.30;73.10;;;;;;4869653;29;20327;-84
2021/10/08 00:33:16;;;;;;;8.65;7.00;;;14.30;73.10;;;;;;4869808;29;20036;-84
2021/10/08 00:35:42;;;;;;;7.95;6.13;;;14.30;73.10;;;;;;4885617;29;20029;-84
2021/10/08 00:38:08;;;;;;;8.35;6.55;;;14.30;73.10;;;;;;4901406;29;20036;-84
2021/10/08 00:40:36;;;;;;;8.38;6.15;;;14.30;73.10;;;;;;4869679;29;20037;-84
2021/10/08 00:43:03;;;;;;;9.20;7.07;;;14.30;73.20;;;;;;4885003;29;20127;-84
2021/10/08 00:45:32;;;;;;;8.35;6.88;;;14.30;73.20;;;;;;4885138;29;20192;-84
2021/10/08 00:48:00;;;;;;;8.55;7.00;;;14.30;73.20;;;;;;4884725;29;20037;-84
2021/10/08 00:50:28;;;;;;;7.93;6.22;;;14.20;73.20;;;;;;4900606;29;20096;-85
2021/10/08 00:52:54;;;;;;;9.40;7.05;;;14.20;73.10;;;;;;4884344;29;20056;-82
2021/10/08 00:55:20;;;;;;;8.07;6.20;;;14.20;73.10;;;;;;4900652;29;20033;-84
2021/10/08 00:57:47;;;;;;;8.27;5.95;;;14.20;73.10;;;;;;4869554;29;20041;-84
2021/10/08 01:00:15;;;;;;;9.07;7.13;;;14.20;73.10;;;;;;4868347;29;20075;-84
2021/10/08 01:02:41;;;;;;;7.70;6.32;;;14.20;73.20;;;;;;4884448;29;20047;-84
2021/10/08 01:05:08;;;;;;;8.27;6.38;;;14.20;73.10;;;;;;4884476;29;20033;-83
2021/10/08 01:07:34;;;;;;;8.02;6.40;;;14.20;73.10;;;;;;4869052;29;20021;-83
2021/10/08 01:10:00;;;;;;;7.82;6.60;;;14.20;73.10;;;;;;4868808;29;20063;-84
2021/10/08 01:12:26;;;;;;;8.13;6.32;;;14.20;73.20;;;;;;4884650;29;20044;-86
2021/10/08 01:14:52;;;;;;;7.95;6.18;;;14.10;73.10;;;;;;4884403;29;20032;-82
2021/10/08 01:17:20;;;;;;;7.80;5.93;;;14.20;73.10;;;;;;4884514;29;20037;-84
2021/10/08 01:19:52;;;;;;;8.15;6.45;;;14.10;73.10;;;;;;4915743;29;20032;-84
2021/10/08 01:22:19;;;;;;;7.80;5.93;;;14.10;73.10;;;;;;4900010;29;20048;-84
2021/10/08 01:24:49;;;;;;;7.40;5.95;;;14.10;73.10;;;;;;4915246;29;20062;-84
2021/10/08 01:27:21;;;;;;;7.80;5.85;;;14.10;73.10;;;;;;4884826;29;20069;-84
2021/10/08 01:29:56;;;;;;;7.85;6.05;;;14.10;73.10;;;;;;4883859;29;20031;-84
2021/10/08 01:32:30;;;;;;;8.13;6.13;;;14.10;73.10;;;;;;4915972;29;20052;-85
2021/10/08 01:34:57;;;;;;;8.38;6.60;;;14.00;73.10;;;;;;4868688;29;20092;-84
2021/10/08 01:37:23;;;;;;;8.52;6.75;;;14.00;73.10;;;;;;4883393;29;20033;-84
2021/10/08 01:39:50;;;;;;;8.55;6.30;;;14.00;73.10;;;;;;4868558;29;20060;-84
2021/10/08 01:42:16;;;;;;;7.93;6.00;;;14.00;73.10;;;;;;4867986;29;20071;-84
2021/10/08 01:44:42;;;;;;;8.82;6.60;;;14.00;73.10;;;;;;4900552;29;20033;-84
2021/10/08 01:47:08;;;;;;;7.70;6.05;;;14.00;73.10;;;;;;4867838;29;20442;-85
2021/10/08 01:49:34;;;;;;;8.63;6.72;;;14.00;73.20;;;;;;4899180;29;20040;-84
2021/10/08 01:52:02;;;;;;;8.27;6.38;;;14.00;73.10;;;;;;4899187;29;20542;-84
2021/10/08 01:54:28;;;;;;;7.85;6.28;;;14.00;73.20;;;;;;4883355;29;20073;-82
2021/10/08 01:56:54;;;;;;;8.45;6.43;;;14.00;73.10;;;;;;4868632;29;20029;-84
2021/10/08 01:59:21;;;;;;;7.78;6.05;;;13.90;73.10;;;;;;4883288;29;20032;-84
2021/10/08 02:01:46;;;;;;;7.57;5.95;;;13.90;73.10;;;;;;4868513;29;20065;-84
2021/10/08 02:04:18;;;;;;;7.90;5.90;;;13.90;73.10;;;;;;4869209;29;20044;-84
2021/10/08 02:06:44;;;;;;;7.35;6.03;;;13.90;73.10;;;;;;4867840;29;20475;-84
2021/10/08 02:09:13;;;;;;;7.82;6.03;;;13.90;73.10;;;;;;4882826;29;20092;-84
2021/10/08 02:11:41;;;;;;;8.32;6.47;;;13.90;73.20;;;;;;4868302;29;20075;-84
2021/10/08 02:14:11;;;;;;;8.00;6.45;;;13.90;73.10;;;;;;4883396;29;20037;-84
2021/10/08 02:16:38;;;;;;;7.75;5.93;;;13.90;73.20;;;;;;4883709;29;20033;-84
2021/10/08 02:19:08;;;;;;;7.53;5.57;;;13.90;73.20;;;;;;4868474;29;20065;-84
2021/10/08 02:21:38;;;;;;;7.18;5.90;;;13.80;73.10;;;;;;4884753;29;20041;-84
2021/10/08 02:24:06;;;;;;;7.90;5.95;;;13.80;73.10;;;;;;4914386;29;20044;-84
2021/10/08 02:26:34;;;;;;;7.45;6.05;;;13.90;73.20;;;;;;4867979;29;20378;-84
2021/10/08 02:29:04;;;;;;;7.70;5.97;;;13.80;73.10;;;;;;4868213;29;20033;-85
2021/10/08 02:31:31;;;;;;;7.68;6.07;;;13.80;73.20;;;;;;4884482;29;20450;-84
2021/10/08 02:34:01;;;;;;;8.18;6.38;;;13.80;73.20;;;;;;4868590;29;20088;-85
2021/10/08 02:36:26;;;;;;;7.80;6.20;;;13.80;73.20;;;;;;4883972;29;20036;-84
2021/10/08 02:38:52;;;;;;;7.78;6.57;;;13.80;73.30;;;;;;4868071;29;20401;-84
2021/10/08 02:41:20;;;;;;;7.60;5.82;;;13.80;73.20;;;;;;4867915;29;20029;-84
2021/10/08 02:43:46;;;;;;;8.25;6.53;;;13.80;73.20;;;;;;4898552;29;20040;-83
2021/10/08 02:46:12;;;;;;;8.77;6.75;;;13.80;73.20;;;;;;4883507;29;20037;-84
2021/10/08 02:48:38;;;;;;;8.05;6.28;;;13.80;73.30;;;;;;4882852;29;20126;-83
2021/10/08 02:51:04;;;;;;;8.18;6.38;;;13.70;73.80;;;;;;4883881;29;20124;-85
2021/10/08 02:53:32;;;;;;;8.15;6.55;;;13.70;73.20;;;;;;4882533;29;20033;-82
2021/10/08 02:55:58;;;;;;;8.75;6.35;;;13.70;73.20;;;;;;4914217;29;20033;-85
2021/10/08 02:58:25;;;;;;;8.55;6.40;;;13.70;73.20;;;;;;4899002;29;20036;-86
2021/10/08 03:00:51;;;;;;;7.70;6.10;;;13.70;73.20;;;;;;4867451;29;20136;-86
2021/10/08 03:03:17;;;;;;;7.55;6.03;;;13.70;73.20;;;;;;4867527;29;20040;-87
2021/10/08 03:05:44;;;;;;;8.23;6.30;;;13.70;73.20;;;;;;4867591;29;20088;-86
2021/10/08 03:08:10;;;;;;;8.68;6.28;;;13.70;73.20;;;;;;4868058;29;20033;-86
2021/10/08 03:10:38;;;;;;;7.47;5.82;;;13.70;73.20;;;;;;4898969;29;20092;-86
2021/10/08 03:13:04;;;;;;;8.15;6.65;;;13.60;73.10;;;;;;4867600;29;20037;-87
2021/10/08 03:15:32;;;;;;;8.48;6.78;;;13.60;73.20;;;;;;4883376;29;20068;-86
2021/10/08 03:17:58;;;;;;;8.38;6.30;;;13.60;73.20;;;;;;4867610;29;20032;-86
2021/10/08 03:20:27;;;;;;;7.95;6.22;;;13.60;73.20;;;;;;4867437;29;20041;-86
2021/10/08 03:22:53;;;;;;;7.88;6.05;;;13.60;73.20;;;;;;4867135;29;20041;-86
2021/10/08 03:25:24;;;;;;;8.95;6.50;;;13.60;73.20;;;;;;4913927;29;20037;-86
2021/10/08 03:27:50;;;;;;;7.85;6.05;;;13.60;73.20;;;;;;4884570;29;20485;-85
2021/10/08 03:30:17;;;;;;;8.23;6.22;;;13.60;73.20;;;;;;4870951;29;20076;-86
2021/10/08 03:32:44;;;;;;;8.13;6.05;;;13.50;73.20;;;;;;4902156;29;20028;-86
2021/10/08 03:35:10;;;;;;;8.10;6.45;;;13.50;73.10;;;;;;4870799;29;20123;-86
2021/10/08 03:37:53;;;;;;;7.28;5.63;;;13.50;73.10;;;;;;4886813;29;20111;-86
2021/10/08 03:40:23;;;;;;;7.63;5.80;;;13.50;73.20;;;;;;4886739;29;20040;-85
2021/10/08 03:42:50;;;;;;;7.55;5.78;;;13.50;73.10;;;;;;4901954;29;20564;-87
2021/10/08 03:45:16;;;;;;;7.05;5.57;;;13.50;73.20;;;;;;4870595;29;20036;-86
2021/10/08 03:48:06;;;;;;;7.75;6.30;;;13.50;73.20;;;;;;4870888;29;20044;-86
2021/10/08 03:50:32;;;;;;;7.68;6.10;;;13.50;73.20;;;;;;4886845;29;20025;-86
2021/10/08 03:52:58;;;;;;;7.82;6.13;;;13.40;73.10;;;;;;4870777;29;20036;-86
2021/10/08 03:55:26;;;;;;;7.10;5.47;;;13.40;73.20;;;;;;4870335;29;20032;-85
2021/10/08 03:57:52;;;;;;;6.95;5.50;;;13.40;73.20;;;;;;4902150;29;20029;-85
2021/10/08 04:00:20;;;;;;;7.70;5.95;;;13.40;73.20;;;;;;4870585;29;20028;-85
2021/10/08 04:02:57;;;;;;;7.65;5.93;;;13.40;73.20;;;;;;4886604;29;20047;-86
2021/10/08 04:05:22;;;;;;;7.65;5.60;;;13.40;73.20;;;;;;4885760;29;20040;-86
2021/10/08 04:07:48;;;;;;;7.60;5.80;;;13.40;73.20;;;;;;4886785;29;20033;-86
2021/10/08 04:10:14;;;;;;;6.85;5.40;;;13.40;73.20;;;;;;4901482;29;20063;-86
2021/10/08 04:12:41;;;;;;;7.38;5.45;;;13.40;73.20;;;;;;4885367;29;20078;-86
2021/10/08 04:15:07;;;;;;;8.18;6.38;;;13.40;73.30;;;;;;4870540;29;20028;-86
2021/10/08 04:17:34;;;;;;;7.20;5.50;;;13.40;73.30;;;;;;4870084;29;20033;-85
2021/10/08 04:19:59;;;;;;;7.40;5.47;;;13.40;73.20;;;;;;4884607;29;20068;-85
2021/10/08 04:22:25;;;;;;;7.53;6.00;;;13.30;73.20;;;;;;4869384;29;20029;-85
2021/10/08 04:24:51;;;;;;;7.85;6.05;;;13.30;73.20;;;;;;4901046;29;20398;-86
2021/10/08 04:27:17;;;;;;;7.45;5.80;;;13.30;73.20;;;;;;4854486;29;20033;-85
2021/10/08 04:29:43;;;;;;;7.20;6.03;;;13.30;73.20;;;;;;4870727;29;20048;-85
2021/10/08 04:32:10;;;;;;;7.70;5.68;;;13.30;73.20;;;;;;4870049;29;20045;-86
2021/10/08 04:34:36;;;;;;;7.05;5.57;;;13.30;73.20;;;;;;4869942;29;20028;-86
2021/10/08 04:37:04;;;;;;;7.47;5.85;;;13.30;73.30;;;;;;4885699;29;20115;-86
2021/10/08 04:39:31;;;;;;;6.93;5.35;;;13.30;73.30;;;;;;4900591;29;20037;-86
2021/10/08 04:41:57;;;;;;;7.57;5.60;;;13.20;73.20;;;;;;4884917;29;20043;-84
2021/10/08 04:44:23;;;;;;;7.78;5.90;;;13.30;73.30;;;;;;4868790;29;20170;-82
2021/10/08 04:46:49;;;;;;;7.55;5.72;;;13.20;73.20;;;;;;4885006;29;20050;-81
2021/10/08 04:49:16;;;;;;;7.18;5.43;;;13.20;73.30;;;;;;4900351;29;20396;-81
2021/10/08 04:51:43;;;;;;;7.32;5.57;;;13.20;73.20;;;;;;4868252;29;20036;-80
2021/10/08 04:54:10;;;;;;;6.88;5.60;;;13.20;73.30;;;;;;4868973;29;20043;-80
2021/10/08 04:56:36;;;;;;;7.28;5.32;;;13.20;73.30;;;;;;4883464;29;20040;-81
2021/10/08 04:59:02;;;;;;;6.80;5.15;;;13.20;73.30;;;;;;4898787;29;20141;-81
2021/10/08 05:01:28;;;;;;;7.32;5.70;;;13.20;73.30;;;;;;4868151;29;20037;-80
2021/10/08 05:03:55;;;;;;;7.47;5.53;;;13.20;73.30;;;;;;4868018;29;20048;-80
2021/10/08 05:06:21;;;;;;;7.70;5.85;;;13.20;73.40;;;;;;4867815;29;20033;-81
2021/10/08 05:08:53;;;;;;;7.72;6.03;;;13.10;73.30;;;;;;4868610;29;20048;-80
2021/10/08 05:11:21;;;;;;;6.95;5.13;;;13.10;73.30;;;;;;4883298;29;20153;-83
2021/10/08 05:13:47;;;;;;;7.10;5.75;;;13.10;73.40;;;;;;4868519;29;20024;-82
2021/10/08 05:16:13;;;;;;;6.50;5.22;;;13.10;73.40;;;;;;4868425;29;20036;-81
2021/10/08 05:18:40;;;;;;;7.28;5.75;;;13.10;73.40;;;;;;4867627;29;20033;-82
2021/10/08 05:21:05;;;;;;;7.03;5.63;;;13.10;73.40;;;;;;4899063;29;20056;-82
2021/10/08 05:23:33;;;;;;;7.35;5.63;;;13.10;73.40;;;;;;4868890;29;20046;-82
2021/10/08 05:25:58;;;;;;;7.68;5.82;;;13.10;73.40;;;;;;4869348;29;20107;-85
2021/10/08 05:28:26;;;;;;;6.75;5.32;;;13.10;73.40;;;;;;4883892;29;20064;-83
2021/10/08 05:30:53;;;;;;;7.53;5.80;;;13.10;74.00;;;;;;4869373;29;20051;-85
2021/10/08 05:33:20;;;;;;;7.32;5.57;;;13.10;73.40;;;;;;4868768;29;20044;-85
2021/10/08 05:35:47;;;;;;;7.00;5.28;;;13.10;73.40;;;;;;4883773;29;20077;-82
2021/10/08 05:38:13;;;;;;;6.57;5.18;;;13.10;73.40;;;;;;4868362;29;20052;-82
2021/10/08 05:40:39;;;;;;;6.53;5.03;;;13.10;73.40;;;;;;4898355;29;20441;-81
2021/10/08 05:43:05;;;;;;;6.45;5.28;;;13.00;73.40;;;;;;4882618;29;20128;-81
2021/10/08 05:45:35;;;;;;;6.78;5.28;;;13.00;73.40;;;;;;4868303;29;20080;-81
2021/10/08 05:48:01;;;;;;;7.25;5.82;;;13.00;73.40;;;;;;4898651;29;20071;-82
2021/10/08 05:50:28;;;;;;;6.45;5.18;;;13.00;73.40;;;;;;4897363;29;20039;-81
2021/10/08 05:52:54;;;;;;;7.03;5.25;;;13.00;73.40;;;;;;4866931;29;20029;-82
2021/10/08 05:55:22;;;;;;;6.80;5.20;;;13.00;73.40;;;;;;4867539;29;20036;-81
2021/10/08 05:57:48;;;;;;;6.88;5.15;;;13.00;73.40;;;;;;4898915;29;20040;-81
2021/10/08 06:00:14;;;;;;;6.95;5.22;;;13.00;74.10;;;;;;4882679;29;20021;-81
2021/10/08 06:02:45;;;;;;;6.93;5.45;;;13.00;73.50;;;;;;4868672;29;20048;-81
2021/10/08 06:05:15;;;;;;;7.95;5.38;;;13.00;73.50;;;;;;4898759;29;20088;-82
2021/10/08 06:07:43;;;;;;;6.75;5.18;;;13.00;73.50;;;;;;4883429;29;20036;-82
2021/10/08 06:10:09;;;;;;;7.00;5.50;;;13.00;73.50;;;;;;4867082;29;20079;-82
2021/10/08 06:12:37;;;;;;;7.15;5.65;;;13.00;73.50;;;;;;4882908;29;20537;-83
2021/10/08 06:15:04;;;;;;;6.55;4.95;;;13.00;73.50;;;;;;4882922;29;20032;-83
2021/10/08 06:17:31;;;;;;;6.78;5.18;;;13.00;73.50;;;;;;4867272;29;20085;-82
2021/10/08 06:19:59;;;;;;;6.50;5.07;;;12.90;73.50;;;;;;4882670;29;20036;-81
2021/10/08 06:22:25;;;;;;;6.75;5.22;;;13.00;73.50;;;;;;4898514;29;20140;-83
2021/10/08 06:24:51;;;;;;;6.45;4.97;;;13.00;73.50;;;;;;4882801;29;20143;-83
2021/10/08 06:27:20;;;;;;;6.72;5.15;;;12.90;73.50;;;;;;4882822;29;20116;-82
2021/10/08 06:29:46;;;;;;;6.93;5.22;;;13.00;73.50;;;;;;4867175;29;20509;-83
2021/10/08 06:32:12;;;;;;;6.30;4.93;;;12.90;73.50;;;;;;4882434;29;20071;-83
2021/10/08 06:34:39;;;;;;;6.28;4.85;;;12.90;73.50;;;;;;4867645;29;20037;-82
2021/10/08 06:37:04;;;;;;;6.65;4.90;;;12.90;73.50;;;;;;4883136;29;20122;-83
2021/10/08 06:39:33;;;;;;;5.88;4.70;;;12.90;73.50;;;;;;4868031;29;20059;-83
2021/10/08 06:42:00;;;;;;;6.38;4.80;;;12.90;73.60;;;;;;4867685;29;20029;-82
2021/10/08 06:44:31;;;;;;;6.28;4.72;;;12.90;73.50;;;;;;4898703;29;20048;-82
2021/10/08 06:46:58;;;;;;;7.13;5.13;;;12.90;73.50;;;;;;4882273;29;20458;-82
2021/10/08 06:49:24;;;;;;;6.55;4.93;;;12.90;73.50;;;;;;4867027;29;20067;-82
2021/10/08 06:51:50;;;;;;;5.78;4.47;;;12.90;73.60;;;;;;4897889;29;20403;-82
2021/10/08 06:54:16;;;;;;;5.80;4.50;;;12.90;73.60;;;;;;4883070;29;20029;-82
2021/10/08 06:56:42;;;;;;;7.25;5.28;;;12.90;73.60;;;;;;4867377;29;20124;-80
2021/10/08 06:59:13;;;;;;;6.28;5.00;;;12.90;73.60;;;;;;4882983;29;20060;-83
2021/10/08 07:01:39;;;;;;;6.25;4.90;;;12.90;73.60;;;;;;4882793;29;20092;-82
2021/10/08 07:04:05;;;;;;;6.35;4.63;;;12.90;73.60;;;;;;4871017;29;20048;-82
2021/10/08 07:06:35;;;;;;;6.25;4.65;;;12.90;73.60;;;;;;4872118;29;20036;-83
2021/10/08 07:09:11;;;;;;;7.00;5.20;;;12.90;73.60;;;;;;4871932;29;20056;-83
2021/10/08 07:11:37;;;;;;;6.28;4.70;;;12.90;73.60;;;;;;4886858;29;20028;-84
2021/10/08 07:14:03;;;;;;;6.38;5.07;;;12.80;73.60;;;;;;4917793;29;20541;-85
2021/10/08 07:16:29;;;;;;;6.55;4.68;;;12.80;73.60;;;;;;4871541;29;20132;-83
2021/10/08 07:18:56;;;;;;;6.38;4.80;;;12.90;73.70;;;;;;4887919;29;20036;-84
2021/10/08 07:21:23;;;;;;;5.43;4.15;;;12.80;73.60;;;;;;4886208;29;20410;-82
2021/10/08 07:23:51;;;;;;;6.57;5.22;;;12.80;73.60;;;;;;4885576;29;20033;-82
2021/10/08 07:26:18;;;;;;;6.35;4.95;;;12.90;73.70;;;;;;4917025;29;20466;-83
2021/10/08 07:28:44;;;;;;;6.78;5.10;;;12.90;73.80;;;;;;4870283;29;20080;-86
2021/10/08 07:31:10;;;;;;;6.63;4.82;;;12.90;73.70;;;;;;4870109;29;20095;-83
2021/10/08 07:33:37;;;;;;;6.70;4.93;;;12.80;73.70;;;;;;4871072;29;20040;-88
2021/10/08 07:36:04;;;;;;;6.60;4.70;;;12.90;73.80;;;;;;4903341;29;20118;-82
2021/10/08 07:38:30;;;;;;;6.72;5.05;;;12.90;73.80;;;;;;4886752;29;20482;-83
2021/10/08 07:40:56;;;;;;;7.82;5.63;;;12.90;73.80;;;;;;4902826;29;20176;-82
2021/10/08 07:43:22;;;;;;;7.57;5.20;;;12.90;73.80;;;;;;4886299;29;20052;-89
2021/10/08 07:45:48;;;;;;;6.57;4.88;;;12.90;73.80;;;;;;4870813;29;20108;-84
2021/10/08 07:48:14;;;;;;;6.18;4.43;;;12.90;73.80;;;;;;4870415;29;20103;-87
2021/10/08 07:50:39;;;;;;;6.45;4.95;;;12.90;73.80;;;;;;4886293;29;20451;-85
2021/10/08 07:53:05;;;;;;;6.03;4.43;;;12.90;73.80;;;;;;4917703;29;20033;-86
2021/10/08 07:55:31;;;;;;;7.53;4.97;;;12.90;73.80;;;;;;4885750;29;20035;-89
2021/10/08 07:57:57;;;;;;;6.32;4.88;;;12.90;73.80;;;;;;4886095;29;20036;-87
2021/10/08 08:00:23;;;;;;;6.88;5.45;;;12.90;73.80;;;;;;4886678;29;20029;-90
2021/10/08 08:02:49;;;;;;;6.55;4.90;;;12.90;73.80;;;;;;4886113;29;20048;-93
2021/10/08 08:05:14;;;;;;;6.57;5.03;;;12.90;73.80;;;;;;4886314;29;20068;-94
2021/10/08 08:07:41;;;;;;;6.43;4.65;;;12.90;73.80;;;;;;4887207;29;20032;-92
2021/10/08 08:10:08;;;;;;;7.32;5.25;;;12.90;73.80;;;;;;4886541;29;20144;-94
2021/10/08 08:12:36;;;;;;;6.75;4.75;;;12.90;73.80;;;;;;4871920;29;20057;-94
2021/10/08 08:15:03;;;;;;;6.65;5.05;;;12.90;73.80;;;;;;4901442;29;20108;-89
2021/10/08 08:17:32;;;;;;;6.47;4.88;;;12.90;73.80;;;;;;4885725;29;20108;-90
2021/10/08 08:19:58;;;;;;;7.43;5.53;;;13.00;73.90;;;;;;4887497;29;20055;-96
2021/10/08 08:22:23;;;;;;;7.25;5.68;;;13.00;73.90;;;;;;4906134;29;20060;-95
2021/10/08 08:24:49;;;;;;;6.60;5.20;;;13.00;73.90;;;;;;4870980;29;20033;-95
2021/10/08 08:27:15;;;;;;;6.18;4.65;;;13.00;73.90;;;;;;4918464;29;20048;-96
2021/10/08 08:29:41;;;;;;;6.50;5.15;;;13.00;73.80;;;;;;4871754;29;20040;-93
2021/10/08 08:32:07;;;;;;;6.22;4.63;;;13.00;73.80;;;;;;4891430;29;20040;-97
2021/10/08 08:34:33;;;;;;;7.35;5.75;;;13.00;73.90;;;;;;4890896;29;20088;-95
2021/10/08 08:36:59;;;;;;;7.00;4.78;;;13.00;73.80;;;;;;4886348;29;20041;-95
2021/10/08 08:39:25;;;;;;;6.85;5.43;;;13.10;73.90;;;;;;4888769;29;20107;-96
2021/10/08 08:41:58;;;;;;;7.80;5.80;;;13.10;73.90;;;;;;4906752;29;20075;-92
2021/10/08 08:44:24;;;;;;;7.47;5.25;;;13.10;73.90;;;;;;4910549;29;20100;-96
2021/10/08 08:46:50;;;;;;;7.32;5.15;;;13.10;73.80;;;;;;4889891;29;20056;-96
2021/10/08 08:49:16;;;;;;;6.88;5.05;;;13.10;73.80;;;;;;4875480;29;20032;-96
2021/10/08 08:51:42;;;;;;;7.43;5.50;;;13.10;73.80;;;;;;4889667;29;20035;-96
2021/10/08 08:54:08;;;;;;;8.07;6.00;;;13.10;73.80;;;;;;4888095;29;20036;-94
2021/10/08 08:56:36;;;;;;;7.50;6.07;;;13.10;73.80;;;;;;4885760;29;20040;-94
2021/10/08 08:59:07;;;;;;;8.25;6.38;;;13.20;73.90;;;;;;4870980;29;20423;-92
2021/10/08 09:01:33;;;;;;;8.40;6.22;;;13.20;73.90;;;;;;4870528;29;20489;-95
2021/10/08 09:04:07;;;;;;;7.93;5.85;;;13.20;73.90;;;;;;4870045;29;20096;-95
2021/10/08 09:06:39;;;;;;;7.63;5.78;;;13.20;73.90;;;;;;4885421;29;20104;-95
2021/10/08 09:09:19;;;;;;;7.63;5.85;;;13.20;73.90;;;;;;4884929;29;20482;-95
2021/10/08 09:11:51;;;;;;;7.85;5.93;;;13.20;74.00;;;;;;4885667;29;20044;-90
2021/10/08 09:14:20;;;;;;;8.75;6.28;;;13.20;73.80;;;;;;4870816;29;20033;-83
2021/10/08 09:17:07;;;;;;;8.93;6.78;;;13.30;74.00;;;;;;4884021;29;20029;-85
2021/10/08 09:19:51;;;;;;;8.65;6.03;;;13.30;74.10;;;;;;4900450;29;20032;-81
2021/10/08 09:22:20;;;;;;;8.07;6.63;;;13.30;74.00;;;;;;4902246;29;20565;-85
2021/10/08 09:24:46;;;;;;;8.93;6.32;;;13.30;73.90;;;;;;4900934;29;20032;-88
2021/10/08 09:27:15;;;;;;;8.57;5.90;;;13.30;73.90;;;;;;4884590;29;20032;-92
2021/10/08 09:29:53;;;;;;;8.00;6.25;;;13.30;73.90;;;;;;4868926;29;20458;-92
2021/10/08 09:32:21;;;;;;;9.45;7.10;;;13.40;74.10;;;;;;4884856;29;20525;-92
2021/10/08 09:34:47;;;;;;;9.02;6.90;;;13.40;73.90;;;;;;4884508;29;20032;-92
2021/10/08 09:37:15;;;;;;;9.15;6.97;;;13.40;74.00;;;;;;4900723;29;20493;-92
2021/10/08 09:39:43;;;;;;;9.93;7.35;;;13.50;74.00;;;;;;4884183;29;20035;-91
2021/10/08 09:42:12;;;;;;;10.07;7.22;;;13.50;73.90;;;;;;4901088;29;20044;-91
2021/10/08 09:44:58;;;;;;;10.88;7.80;;;13.50;73.90;;;;;;4868879;29;20124;-90
2021/10/08 09:47:26;;;;;;;9.75;7.07;;;13.50;74.00;;;;;;4900139;29;20095;-91
2021/10/08 09:50:05;;;;;;;9.90;7.47;;;13.60;73.80;;;;;;4883907;29;20032;-92
2021/10/08 09:52:31;;;;;;;10.23;7.78;;;13.60;73.80;;;;;;4900178;29;20040;-92
2021/10/08 09:55:04;;;;;;;11.85;8.35;;;13.60;73.70;;;;;;4868805;29;20462;-93
2021/10/08 09:57:50;;;;;;;10.07;7.25;;;13.70;73.80;;;;;;4884241;29;20123;-90
2021/10/08 10:00:39;;;;;;;10.13;7.47;;;13.70;73.90;;;;;;4915367;29;20036;-93
2021/10/08 10:03:07;;;;;;;11.20;7.95;;;13.80;73.80;;;;;;4885072;29;20037;-92
2021/10/08 10:05:33;;;;;;;10.75;8.35;;;13.80;73.60;;;;;;4884862;29;20362;-90
2021/10/08 10:07:59;;;;;;;11.18;8.15;;;13.90;73.70;;;;;;4885146;29;20035;-91
2021/10/08 10:10:26;;;;;;;10.60;7.63;;;13.90;73.60;;;;;;4869128;29;20144;-91
2021/10/08 10:12:52;;;;;;;12.15;8.93;;;14.00;73.60;;;;;;4883543;29;20104;-90
2021/10/08 10:15:19;;;;;;;11.27;8.35;;;14.00;73.60;;;;;;4884182;29;20035;-91
2021/10/08 10:17:47;;;;;;;10.68;8.05;;;14.00;73.60;;;;;;4884472;29;20470;-90
2021/10/08 10:20:13;;;;;;;12.68;9.55;;;14.10;73.50;;;;;;4868495;29;20426;-88
2021/10/08 10:22:40;;;;;;;12.93;9.63;;;14.10;73.40;;;;;;4915333;29;20047;-90
2021/10/08 10:25:09;;;;;;;12.90;9.25;;;14.20;73.50;;;;;;4884026;29;20037;-89
2021/10/08 10:27:35;;;;;;;13.98;9.55;;;14.30;74.10;;;;;;4868916;29;20438;-90
2021/10/08 10:30:04;;;;;;;13.70;8.82;;;14.30;73.40;;;;;;4868519;29;20088;-89
2021/10/08 10:32:31;;;;;;;12.13;9.05;;;14.40;73.40;;;;;;4883930;29;20029;-88
2021/10/08 10:34:58;;;;;;;13.15;9.38;;;14.40;73.40;;;;;;4899549;29;20481;-88
2021/10/08 10:37:42;;;;;;;12.98;9.30;;;14.50;73.30;;;;;;4897985;29;20040;-88
2021/10/08 10:40:24;;;;;;;12.52;9.07;;;14.50;73.40;;;;;;4883857;29;20061;-88
2021/10/08 10:43:15;;;;;;;13.10;9.65;;;14.60;73.40;;;;;;4867994;29;20033;-88
2021/10/08 10:52:08;;;;;;;13.40;9.73;;;14.70;73.30;;;;;;4900364;29;20048;-88
2021/10/08 10:54:34;;;;;;;14.20;9.68;;;14.70;73.30;;;;;;4867637;29;20033;-88
2021/10/08 10:57:32;;;;;;;13.68;9.52;;;14.70;73.10;;;;;;4867475;29;20430;-88
2021/10/08 11:00:13;;;;;;;12.63;9.38;;;14.80;73.40;;;;;;4883479;29;20058;-85
2021/10/08 11:02:40;;;;;;;14.13;9.90;;;14.80;73.40;;;;;;4867726;29;20095;-83
2021/10/08 11:05:20;;;;;;;12.93;9.32;;;14.90;73.40;;;;;;4867357;29;20041;-84
2021/10/08 11:08:12;;;;;;;15.00;10.43;;;14.90;73.60;;;;;;4899197;29;20107;-86
2021/10/08 11:10:46;;;;;;;14.55;9.90;;;14.90;73.70;;;;;;4867429;29;20493;-81
2021/10/08 11:13:32;;;;;;;13.67;9.97;;;15.00;73.80;;;;;;4883211;29;20123;-82
2021/10/08 11:16:01;;;;;;;;;;;15.00;74.00;;;;;;4866838;29;20299;-80
2021/10/08 11:18:57;;;;;;;13.10;8.45;;;15.00;73.60;;;;;;4882092;29;19915;-83
2021/10/08 11:21:29;;;;;;;13.18;9.45;;;15.00;73.80;;;;;;4866878;29;20119;-87
2021/10/08 11:24:18;;;;;;;14.45;10.15;;;15.00;73.90;;;;;;4899587;29;20071;-90
2021/10/08 11:26:56;;;;;;;12.95;9.60;;;15.10;74.30;;;;;;4883972;29;20042;-89
2021/10/08 11:29:22;;;;;;;13.82;9.85;;;15.00;74.20;;;;;;4899014;29;20063;-86
2021/10/08 11:32:05;;;;;;;13.13;9.65;;;15.10;74.20;;;;;;4883023;29;20071;-88
2021/10/08 11:34:32;;;;;;;13.35;10.02;;;15.10;74.50;;;;;;4900783;29;20029;-90
2021/10/08 11:36:59;;;;;;;14.02;9.88;;;15.10;74.40;;;;;;4898266;29;20041;-91
2021/10/08 11:39:25;;;;;;;13.80;10.35;;;15.10;74.50;;;;;;4883400;29;20048;-84
2021/10/08 11:42:11;;;;;;;14.23;10.65;;;15.20;74.60;;;;;;4882357;29;20097;-91
2021/10/08 11:44:41;;;;;;;14.23;10.88;;;15.20;74.90;;;;;;4897610;29;20028;-91
2021/10/08 11:47:27;;;;;;;14.73;10.85;;;15.20;74.70;;;;;;4897825;29;20043;-87
2021/10/08 11:50:28;;;;;;;12.88;9.77;;;15.30;74.60;;;;;;4885371;29;20036;-89
2021/10/08 11:53:02;;;;;;;14.65;9.85;;;15.30;74.60;;;;;;4886586;29;20041;-90
2021/10/08 11:55:31;;;;;;;;;;;15.30;74.60;;;;;;4887114;29;20440;-87
2021/10/08 11:58:10;;;;;;;11.68;8.27;;;15.30;74.30;;;;;;4871188;29;19914;-87
2021/10/08 12:00:52;;;;;;;12.95;9.13;;;15.40;74.30;;;;;;4887233;29;20114;-87
2021/10/08 12:03:21;;;;;;;12.68;8.80;;;15.40;74.30;;;;;;4886928;29;20032;-93
2021/10/08 12:06:05;;;;;;;11.07;7.78;;;15.40;74.40;;;;;;4903363;29;20036;-93
2021/10/08 12:08:36;;;;;;;12.20;7.45;;;15.50;74.40;;;;;;4903561;29;20123;-89
2021/10/08 12:11:08;;;;;;;9.00;6.57;;;15.50;74.20;;;;;;4902692;29;20482;-85
2021/10/08 12:13:58;;;;;;;9.60;6.80;;;15.50;74.20;;;;;;4871151;29;20131;-83
2021/10/08 12:16:26;;;;;;;8.05;5.93;;;15.50;74.20;;;;;;4869577;29;20112;-83
2021/10/08 12:18:59;;;;;;;8.15;5.90;;;15.60;74.10;;;;;;4885569;29;20100;-84
2021/10/08 12:21:36;;;;;;;8.57;6.35;;;15.60;74.20;;;;;;4869857;29;20036;-84
2021/10/08 12:24:14;;;;;;;7.80;5.63;;;15.60;74.10;;;;;;4885705;29;20029;-83
2021/10/08 12:27:01;;;;;;;7.72;5.93;;;15.60;74.10;;;;;;4870397;29;20028;-80
2021/10/08 12:29:44;;;;;;;7.55;5.15;;;15.60;74.30;;;;;;4885158;29;20036;-81
2021/10/08 12:32:18;;;;;;;7.53;5.18;;;15.60;74.20;;;;;;4869011;29;20043;-80
2021/10/08 12:34:47;;;;;;;6.93;4.78;;;15.70;74.20;;;;;;4870147;29;20105;-80
2021/10/08 12:37:23;;;;;;;6.20;4.57;;;15.70;74.20;;;;;;4869659;29;20473;-80
2021/10/08 12:40:10;;;;;;;6.82;4.45;;;15.70;74.20;;;;;;4884911;29;20044;-83
2021/10/08 12:42:40;;;;;;;6.93;4.72;;;15.70;74.40;;;;;;4885204;29;20040;-81
2021/10/08 12:45:21;;;;;;;6.35;4.38;;;15.70;74.20;;;;;;4900429;29;20043;-80
2021/10/08 12:47:48;;;;;;;6.15;4.53;;;15.80;74.30;;;;;;4869344;29;20091;-80
2021/10/08 12:50:22;;;;;;;6.53;4.53;;;15.80;74.20;;;;;;4900136;29;20052;-81
2021/10/08 12:52:50;;;;;;;6.53;4.22;;;15.80;74.20;;;;;;4883624;29;20036;-82
2021/10/08 12:55:25;;;;;;;6.35;4.40;;;15.80;74.10;;;;;;4867848;29;20043;-80
2021/10/08 12:58:06;;;;;;;5.43;3.75;;;15.80;74.20;;;;;;4883144;29;20044;-82
2021/10/08 13:00:39;;;;;;;5.10;3.90;;;15.80;74.20;;;;;;4899801;29;20474;-80
2021/10/08 13:03:26;;;;;;;5.72;4.00;;;15.90;74.10;;;;;;4883040;29;20037;-81